createdAt,value
2022-10-11T00:00:38.466Z,9.27
2022-10-11T00:06:00.346Z,9.24
2022-10-11T00:11:22.242Z,9.17
2022-10-11T00:16:44.441Z,9.18
2022-10-11T00:22:06.533Z,9.13
2022-10-11T00:27:28.426Z,9.13
2022-10-11T00:32:50.309Z,9.05
2022-10-11T00:38:12.174Z,8.98
2022-10-11T00:43:34.676Z,8.85
2022-10-11T00:49:02.874Z,8.78
2022-10-11T00:54:28.816Z,8.66
2022-10-11T00:59:53.833Z,8.54
2022-10-11T01:05:29.064Z,8.55
2022-10-11T01:10:52.032Z,8.42
2022-10-11T01:16:23.542Z,8.41
2022-10-11T01:21:52.086Z,8.34
2022-10-11T01:27:29.413Z,8.38
2022-10-11T01:33:17.138Z,8.27
2022-10-11T01:38:50.598Z,8.27
2022-10-11T01:44:13.567Z,8.35
2022-10-11T01:49:35.404Z,8.30
2022-10-11T01:55:31.058Z,8.43
2022-10-11T02:01:03.381Z,8.32
2022-10-11T02:06:46.962Z,8.35
2022-10-11T02:12:12.468Z,8.29
2022-10-11T02:17:39.296Z,8.40
2022-10-11T02:23:07.980Z,8.36
2022-10-11T02:28:35.444Z,8.41
2022-10-11T02:34:05.347Z,8.53
2022-10-11T02:39:34.125Z,8.57
2022-10-11T02:45:04.293Z,8.67
2022-10-11T02:50:27.035Z,8.83
2022-10-11T02:55:51.447Z,8.65
2022-10-11T03:01:13.911Z,8.72
2022-10-11T03:06:35.874Z,8.69
2022-10-11T03:11:57.763Z,8.49
2022-10-11T03:17:35.679Z,8.40
2022-10-11T03:22:58.228Z,8.37
2022-10-11T03:28:20.620Z,8.37
2022-10-11T03:33:42.485Z,8.38
2022-10-11T03:39:04.507Z,8.30
2022-10-11T03:44:26.615Z,8.44
2022-10-11T03:49:48.490Z,8.47
2022-10-11T03:55:10.310Z,8.45
2022-10-11T04:00:33.326Z,8.54
2022-10-11T04:05:55.301Z,8.50
2022-10-11T04:11:17.164Z,8.60
2022-10-11T04:16:38.956Z,8.61
2022-10-11T04:22:00.816Z,8.61
2022-10-11T04:27:22.700Z,8.70
2022-10-11T04:32:44.695Z,8.70
2022-10-11T04:38:06.548Z,8.46
2022-10-11T04:43:28.598Z,8.51
2022-10-11T04:48:51.052Z,8.37
2022-10-11T04:54:12.893Z,8.39
2022-10-11T04:59:34.721Z,8.31
2022-10-11T05:04:56.538Z,8.35
2022-10-11T05:10:18.481Z,8.34
2022-10-11T05:15:40.359Z,8.40
2022-10-11T05:21:03.400Z,8.48
2022-10-11T05:26:27.136Z,8.50
2022-10-11T05:31:48.953Z,8.69
2022-10-11T05:37:10.820Z,8.87
2022-10-11T05:42:33.145Z,9.14
2022-10-11T05:47:54.966Z,9.56
2022-10-11T05:53:16.901Z,10.21
2022-10-11T05:58:39.623Z,9.98
2022-10-11T06:04:01.457Z,10.47
2022-10-11T06:09:23.294Z,17.98
2022-10-11T06:14:45.121Z,18.15
2022-10-11T06:20:07.559Z,17.28
2022-10-11T06:25:44.465Z,18.08
2022-10-11T06:31:07.153Z,19.60
2022-10-11T06:36:28.982Z,22.68
2022-10-11T06:41:50.829Z,26.27
2022-10-11T06:47:12.669Z,26.95
2022-10-11T06:52:34.492Z,28.66
2022-10-11T06:57:57.125Z,27.78
2022-10-11T07:03:19.006Z,28.00
2022-10-11T07:08:41.174Z,27.83
2022-10-11T07:14:05.854Z,27.12
2022-10-11T07:19:27.732Z,26.36
2022-10-11T07:24:49.590Z,26.30
2022-10-11T07:30:11.776Z,23.67
2022-10-11T07:35:37.493Z,20.52
2022-10-11T07:40:59.582Z,22.70
2022-10-11T07:46:21.419Z,23.49
2022-10-11T07:51:43.714Z,22.26
2022-10-11T07:57:05.533Z,20.25
2022-10-11T08:02:27.411Z,19.55
2022-10-11T08:07:49.336Z,19.22
2022-10-11T08:13:11.396Z,18.80
2022-10-11T08:18:33.617Z,17.95
2022-10-11T08:23:55.509Z,17.88
2022-10-11T08:29:17.755Z,16.69
2022-10-11T08:34:39.593Z,16.86
2022-10-11T08:40:01.522Z,17.20
2022-10-11T08:45:42.684Z,17.08
2022-10-11T08:51:19.483Z,16.97
2022-10-11T08:56:41.744Z,16.82
2022-10-11T09:02:19.843Z,17.17
2022-10-11T09:07:56.620Z,17.41
2022-10-11T09:13:39.897Z,20.26
2022-10-11T09:19:37.181Z,18.31
2022-10-11T09:25:04.869Z,18.04
2022-10-11T09:30:26.812Z,17.88
2022-10-11T09:35:52.496Z,17.82
2022-10-11T09:41:22.114Z,17.67
2022-10-11T09:46:45.532Z,17.96
2022-10-11T09:52:15.493Z,17.63
2022-10-11T09:57:39.780Z,17.01
2022-10-11T10:03:04.024Z,17.60
2022-10-11T10:08:26.035Z,17.64
2022-10-11T10:13:54.603Z,17.86
2022-10-11T10:19:21.283Z,18.96
2022-10-11T10:24:43.367Z,19.11
2022-10-11T10:30:08.221Z,18.47
2022-10-11T10:35:35.528Z,17.52
2022-10-11T10:41:01.451Z,17.69
2022-10-11T10:46:28.877Z,18.05
2022-10-11T10:51:57.970Z,18.05
2022-10-11T10:57:28.514Z,17.73
2022-10-11T11:02:53.377Z,17.43
2022-10-11T11:08:36.760Z,17.01
2022-10-11T11:14:03.015Z,16.80
2022-10-11T11:19:38.181Z,17.08
2022-10-11T11:25:08.887Z,16.76
2022-10-11T11:30:54.252Z,16.97
2022-10-11T11:37:03.594Z,16.95
2022-10-11T11:42:39.237Z,17.07
2022-10-11T11:48:10.617Z,17.36
2022-10-11T11:53:47.869Z,17.07
2022-10-11T11:59:45.990Z,16.95
2022-10-11T12:05:10.810Z,16.52
2022-10-11T12:10:54.502Z,16.62
2022-10-11T12:16:17.383Z,16.48
2022-10-11T12:21:43.392Z,16.22
2022-10-11T12:27:37.013Z,16.25
2022-10-11T12:33:18.855Z,16.27
2022-10-11T12:38:40.710Z,16.06
2022-10-11T12:44:24.948Z,15.99
2022-10-11T12:49:47.002Z,15.96
2022-10-11T12:55:44.856Z,15.92
2022-10-11T13:01:09.410Z,16.30
2022-10-11T13:06:35.759Z,16.09
2022-10-11T13:12:09.055Z,16.10
2022-10-11T13:17:38.480Z,16.43
2022-10-11T13:23:00.783Z,16.23
2022-10-11T13:28:23.699Z,16.27
2022-10-11T13:33:46.391Z,16.16
2022-10-11T13:39:28.377Z,16.24
2022-10-11T13:44:52.824Z,16.30
2022-10-11T13:50:17.430Z,16.50
2022-10-11T13:55:42.072Z,16.54
2022-10-11T14:01:07.983Z,16.67
2022-10-11T14:06:52.349Z,16.71
2022-10-11T14:12:31.298Z,16.70
2022-10-11T14:17:53.291Z,16.84
2022-10-11T14:23:15.277Z,16.71
2022-10-11T14:28:37.179Z,16.80
2022-10-11T14:33:59.245Z,16.75
2022-10-11T14:39:24.261Z,16.61
2022-10-11T14:44:46.334Z,16.42
2022-10-11T14:50:23.387Z,16.38
2022-10-11T14:55:45.492Z,16.12
2022-10-11T15:01:10.085Z,15.95
2022-10-11T15:06:36.555Z,15.60
2022-10-11T15:11:58.589Z,15.32
2022-10-11T15:17:20.441Z,15.10
2022-10-11T15:22:42.281Z,14.88
2022-10-11T15:28:05.401Z,14.60
2022-10-11T15:33:27.303Z,14.54
2022-10-11T15:38:49.483Z,14.30
2022-10-11T15:44:11.291Z,14.03
2022-10-11T15:49:33.122Z,13.86
2022-10-11T15:54:54.934Z,13.65
2022-10-11T16:00:21.954Z,13.29
2022-10-11T16:05:44.276Z,13.23
2022-10-11T16:11:07.648Z,13.05
2022-10-11T16:16:29.474Z,12.84
2022-10-11T16:21:51.273Z,12.77
2022-10-11T16:27:16.550Z,12.65
2022-10-11T16:32:41.431Z,12.49
2022-10-11T16:38:03.292Z,12.36
2022-10-11T16:43:25.122Z,12.27
2022-10-11T16:48:47.732Z,12.15
2022-10-11T16:54:09.609Z,12.08
2022-10-11T16:59:31.428Z,11.98
2022-10-11T17:04:53.557Z,11.90
2022-10-11T17:10:15.444Z,11.79
2022-10-11T17:15:37.706Z,11.75
2022-10-11T17:21:04.674Z,11.63
2022-10-11T17:26:27.218Z,11.59
2022-10-11T17:31:49.578Z,11.52
2022-10-11T17:37:11.486Z,11.48
2022-10-11T17:42:33.341Z,11.35
2022-10-11T17:47:55.189Z,11.39
2022-10-11T17:53:17.066Z,11.34
2022-10-11T17:58:39.274Z,11.23
2022-10-11T18:04:04.192Z,11.22
2022-10-11T18:09:26.004Z,11.16
2022-10-11T18:14:47.871Z,11.13
2022-10-11T18:20:10.162Z,11.09
2022-10-11T18:25:33.554Z,11.06
2022-10-11T18:30:55.357Z,10.89
2022-10-11T18:36:19.776Z,10.84
2022-10-11T18:41:42.507Z,10.85
2022-10-11T18:47:04.610Z,10.84
2022-10-11T18:52:26.418Z,10.61
2022-10-11T18:57:48.226Z,10.62
2022-10-11T19:03:10.047Z,10.57
2022-10-11T19:08:32.519Z,10.50
2022-10-11T19:14:08.448Z,10.41
2022-10-11T19:19:31.096Z,10.32
2022-10-11T19:24:53.013Z,10.29
2022-10-11T19:30:15.030Z,10.21
2022-10-11T19:35:36.878Z,10.17
2022-10-11T19:41:00.665Z,10.17
2022-10-11T19:46:44.311Z,10.10
2022-10-11T19:52:04.457Z,10.08
2022-10-11T19:57:26.319Z,10.02
2022-10-11T20:02:49.097Z,9.99
2022-10-11T20:08:10.929Z,9.96
2022-10-11T20:13:35.056Z,9.89
2022-10-11T20:18:58.155Z,9.79
2022-10-11T20:24:19.972Z,9.73
2022-10-11T20:29:41.763Z,9.59
2022-10-11T20:35:03.873Z,9.65
2022-10-11T20:40:25.740Z,9.58
2022-10-11T20:46:05.032Z,9.47
2022-10-11T20:51:26.895Z,9.50
2022-10-11T20:56:48.947Z,9.40
2022-10-11T21:02:12.610Z,9.35
2022-10-11T21:07:37.233Z,9.26
2022-10-11T21:12:59.112Z,9.16
2022-10-11T21:18:21.340Z,9.18
2022-10-11T21:23:43.375Z,9.13
2022-10-11T21:29:05.229Z,9.09
2022-10-11T21:34:27.451Z,9.07
2022-10-11T21:39:49.279Z,8.98
2022-10-11T21:45:11.082Z,8.95
2022-10-11T21:50:32.955Z,8.98
2022-10-11T21:55:58.934Z,8.94
2022-10-11T22:01:21.277Z,8.75
2022-10-11T22:06:43.154Z,8.82
2022-10-11T22:12:05.418Z,8.76
2022-10-11T22:17:27.258Z,8.69
2022-10-11T22:22:49.050Z,8.48
2022-10-11T22:28:10.960Z,8.39
2022-10-11T22:33:33.252Z,8.37
2022-10-11T22:38:55.181Z,8.24
2022-10-11T22:44:17.032Z,8.25
2022-10-11T22:49:38.876Z,8.27
2022-10-11T22:55:00.883Z,8.13
2022-10-11T23:00:22.734Z,8.11
2022-10-11T23:05:54.187Z,8.04
2022-10-11T23:11:15.975Z,8.03
2022-10-11T23:16:38.008Z,7.95
2022-10-11T23:21:59.804Z,7.95
2022-10-11T23:27:21.772Z,7.82
2022-10-11T23:32:43.600Z,7.83
2022-10-11T23:38:05.424Z,7.82
2022-10-11T23:43:27.298Z,7.81
2022-10-11T23:48:49.189Z,7.81
2022-10-11T23:54:11.109Z,7.78
2022-10-11T23:59:32.947Z,7.75
